sensor_id;sensor_type;location;lat;lon;timestamp;temperature;humidity
23411;DHT22;11878;51.774;7.220;2022-10-16T00:02:15;12.00;99.90
23411;DHT22;11878;51.774;7.220;2022-10-16T00:05:17;11.90;99.90
23411;DHT22;11878;51.774;7.220;2022-10-16T00:08:19;12.00;99.90
23411;DHT22;11878;51.774;7.220;2022-10-16T00:11:23;12.00;99.90
23411;DHT22;11878;51.774;7.220;2022-10-16T00:14:25;12.00;99.90
23411;DHT22;11878;51.774;7.220;2022-10-16T00:17:27;12.00;99.90
23411;DHT22;11878;51.774;7.220;2022-10-16T00:20:28;11.90;99.90
23411;DHT22;11878;51.774;7.220;2022-10-16T00:23:31;11.80;99.90
23411;DHT22;11878;51.774;7.220;2022-10-16T00:26:34;11.90;99.90
23411;DHT22;11878;51.774;7.220;2022-10-16T00:29:36;11.80;99.90
23411;DHT22;11878;51.774;7.220;2022-10-16T00:32:37;11.70;99.90
23411;DHT22;11878;51.774;7.220;2022-10-16T00:35:39;11.70;99.90
23411;DHT22;11878;51.774;7.220;2022-10-16T00:38:41;11.70;99.90
23411;DHT22;11878;51.774;7.220;2022-10-16T00:41:43;11.80;99.90
23411;DHT22;11878;51.774;7.220;2022-10-16T00:44:53;11.70;99.90
23411;DHT22;11878;51.774;7.220;2022-10-16T00:47:57;11.70;99.90
23411;DHT22;11878;51.774;7.220;2022-10-16T00:50:59;11.70;99.90
23411;DHT22;11878;51.774;7.220;2022-10-16T00:54:04;11.60;99.90
23411;DHT22;11878;51.774;7.220;2022-10-16T00:57:06;11.60;99.90
23411;DHT22;11878;51.774;7.220;2022-10-16T01:00:11;11.60;99.90
23411;DHT22;11878;51.774;7.220;2022-10-16T01:03:34;11.60;99.90
23411;DHT22;11878;51.774;7.220;2022-10-16T01:06:56;11.60;99.90
23411;DHT22;11878;51.774;7.220;2022-10-16T01:10:49;11.60;99.90
23411;DHT22;11878;51.774;7.220;2022-10-16T01:13:58;11.60;99.90
23411;DHT22;11878;51.774;7.220;2022-10-16T01:17:06;11.60;99.90
23411;DHT22;11878;51.774;7.220;2022-10-16T01:20:35;11.50;99.90
23411;DHT22;11878;51.774;7.220;2022-10-16T01:27:15;11.50;99.90
23411;DHT22;11878;51.774;7.220;2022-10-16T01:30:26;11.40;99.90
23411;DHT22;11878;51.774;7.220;2022-10-16T01:33:45;11.40;99.90
23411;DHT22;11878;51.774;7.220;2022-10-16T01:36:55;11.50;99.90
23411;DHT22;11878;51.774;7.220;2022-10-16T01:40:00;11.40;99.90
23411;DHT22;11878;51.774;7.220;2022-10-16T01:43:11;11.30;99.90
23411;DHT22;11878;51.774;7.220;2022-10-16T01:46:16;11.20;99.90
23411;DHT22;11878;51.774;7.220;2022-10-16T01:49:22;11.20;99.90
23411;DHT22;11878;51.774;7.220;2022-10-16T01:52:26;11.20;99.90
23411;DHT22;11878;51.774;7.220;2022-10-16T01:55:34;11.30;99.90
23411;DHT22;11878;51.774;7.220;2022-10-16T01:58:43;11.40;99.90
23411;DHT22;11878;51.774;7.220;2022-10-16T02:01:56;11.30;99.90
23411;DHT22;11878;51.774;7.220;2022-10-16T02:05:20;11.30;99.90
23411;DHT22;11878;51.774;7.220;2022-10-16T02:08:25;11.30;99.90
23411;DHT22;11878;51.774;7.220;2022-10-16T02:11:29;11.20;99.90
23411;DHT22;11878;51.774;7.220;2022-10-16T02:14:31;11.20;99.90
23411;DHT22;11878;51.774;7.220;2022-10-16T02:17:33;11.20;99.90
23411;DHT22;11878;51.774;7.220;2022-10-16T02:20:59;11.20;99.90
23411;DHT22;11878;51.774;7.220;2022-10-16T02:24:27;11.20;99.90
23411;DHT22;11878;51.774;7.220;2022-10-16T02:27:54;11.30;99.90
23411;DHT22;11878;51.774;7.220;2022-10-16T02:31:03;11.20;99.90
23411;DHT22;11878;51.774;7.220;2022-10-16T02:34:06;11.20;99.90
23411;DHT22;11878;51.774;7.220;2022-10-16T02:37:10;11.20;99.90
23411;DHT22;11878;51.774;7.220;2022-10-16T02:40:13;11.20;99.90
23411;DHT22;11878;51.774;7.220;2022-10-16T02:43:16;11.30;99.90
23411;DHT22;11878;51.774;7.220;2022-10-16T02:46:18;11.40;99.90
23411;DHT22;11878;51.774;7.220;2022-10-16T02:49:20;11.40;99.90
23411;DHT22;11878;51.774;7.220;2022-10-16T02:52:22;11.40;99.90
23411;DHT22;11878;51.774;7.220;2022-10-16T02:55:24;11.30;99.90
23411;DHT22;11878;51.774;7.220;2022-10-16T02:58:26;11.40;99.90
23411;DHT22;11878;51.774;7.220;2022-10-16T03:01:27;11.30;99.90
23411;DHT22;11878;51.774;7.220;2022-10-16T03:04:29;11.20;99.90
23411;DHT22;11878;51.774;7.220;2022-10-16T03:07:31;11.20;99.90
23411;DHT22;11878;51.774;7.220;2022-10-16T03:10:33;11.20;99.90
23411;DHT22;11878;51.774;7.220;2022-10-16T03:13:34;11.10;99.90
23411;DHT22;11878;51.774;7.220;2022-10-16T03:16:36;11.20;99.90
23411;DHT22;11878;51.774;7.220;2022-10-16T03:19:38;11.10;99.90
23411;DHT22;11878;51.774;7.220;2022-10-16T03:22:40;11.00;99.90
23411;DHT22;11878;51.774;7.220;2022-10-16T03:25:42;11.00;99.90
23411;DHT22;11878;51.774;7.220;2022-10-16T03:28:43;11.00;99.90
23411;DHT22;11878;51.774;7.220;2022-10-16T03:31:45;11.00;99.90
23411;DHT22;11878;51.774;7.220;2022-10-16T03:34:47;11.00;99.90
23411;DHT22;11878;51.774;7.220;2022-10-16T03:37:49;11.00;99.90
23411;DHT22;11878;51.774;7.220;2022-10-16T03:40:50;11.00;99.90
23411;DHT22;11878;51.774;7.220;2022-10-16T03:43:52;11.10;99.90
23411;DHT22;11878;51.774;7.220;2022-10-16T03:46:54;11.00;99.90
23411;DHT22;11878;51.774;7.220;2022-10-16T03:49:55;11.00;99.90
23411;DHT22;11878;51.774;7.220;2022-10-16T03:52:57;11.00;99.90
23411;DHT22;11878;51.774;7.220;2022-10-16T03:55:59;10.90;99.90
23411;DHT22;11878;51.774;7.220;2022-10-16T03:59:01;10.90;99.90
23411;DHT22;11878;51.774;7.220;2022-10-16T04:02:02;10.80;99.90
23411;DHT22;11878;51.774;7.220;2022-10-16T04:05:04;10.80;99.90
23411;DHT22;11878;51.774;7.220;2022-10-16T04:08:06;10.80;99.90
23411;DHT22;11878;51.774;7.220;2022-10-16T04:11:08;10.70;99.90
23411;DHT22;11878;51.774;7.220;2022-10-16T04:14:10;10.80;99.90
23411;DHT22;11878;51.774;7.220;2022-10-16T04:17:12;10.90;99.90
23411;DHT22;11878;51.774;7.220;2022-10-16T04:20:13;10.70;99.90
23411;DHT22;11878;51.774;7.220;2022-10-16T04:23:15;10.90;99.90
23411;DHT22;11878;51.774;7.220;2022-10-16T04:26:17;10.90;99.90
23411;DHT22;11878;51.774;7.220;2022-10-16T04:29:19;10.90;99.90
23411;DHT22;11878;51.774;7.220;2022-10-16T04:32:21;10.90;99.90
23411;DHT22;11878;51.774;7.220;2022-10-16T04:35:22;10.90;99.90
23411;DHT22;11878;51.774;7.220;2022-10-16T04:38:24;10.90;99.90
23411;DHT22;11878;51.774;7.220;2022-10-16T04:41:26;10.90;99.90
23411;DHT22;11878;51.774;7.220;2022-10-16T04:44:28;10.90;99.90
23411;DHT22;11878;51.774;7.220;2022-10-16T04:47:29;10.90;99.90
23411;DHT22;11878;51.774;7.220;2022-10-16T04:50:31;10.80;99.90
23411;DHT22;11878;51.774;7.220;2022-10-16T04:53:39;10.90;99.90
23411;DHT22;11878;51.774;7.220;2022-10-16T04:56:40;10.90;99.90
23411;DHT22;11878;51.774;7.220;2022-10-16T04:59:48;10.90;99.90
23411;DHT22;11878;51.774;7.220;2022-10-16T05:02:50;11.00;99.90
23411;DHT22;11878;51.774;7.220;2022-10-16T05:05:52;11.10;99.90
23411;DHT22;11878;51.774;7.220;2022-10-16T05:08:54;11.10;99.90
23411;DHT22;11878;51.774;7.220;2022-10-16T05:11:55;11.10;99.90
23411;DHT22;11878;51.774;7.220;2022-10-16T05:14:57;11.20;99.90
23411;DHT22;11878;51.774;7.220;2022-10-16T05:18:00;11.30;99.90
23411;DHT22;11878;51.774;7.220;2022-10-16T05:21:02;11.40;99.90
23411;DHT22;11878;51.774;7.220;2022-10-16T05:24:04;11.60;99.90
23411;DHT22;11878;51.774;7.220;2022-10-16T05:27:05;11.80;99.90
23411;DHT22;11878;51.774;7.220;2022-10-16T05:30:07;12.00;99.90
23411;DHT22;11878;51.774;7.220;2022-10-16T05:33:13;12.20;99.90
23411;DHT22;11878;51.774;7.220;2022-10-16T05:36:14;12.30;99.90
23411;DHT22;11878;51.774;7.220;2022-10-16T05:39:16;12.10;99.90
23411;DHT22;11878;51.774;7.220;2022-10-16T05:42:18;12.10;99.90
23411;DHT22;11878;51.774;7.220;2022-10-16T05:45:20;12.00;99.90
23411;DHT22;11878;51.774;7.220;2022-10-16T05:48:22;12.00;99.90
23411;DHT22;11878;51.774;7.220;2022-10-16T05:51:24;12.00;99.90
23411;DHT22;11878;51.774;7.220;2022-10-16T05:54:26;12.00;99.90
23411;DHT22;11878;51.774;7.220;2022-10-16T05:57:28;11.90;99.90
23411;DHT22;11878;51.774;7.220;2022-10-16T06:00:30;12.10;99.90
23411;DHT22;11878;51.774;7.220;2022-10-16T06:03:31;12.20;99.90
23411;DHT22;11878;51.774;7.220;2022-10-16T06:06:33;12.20;99.90
23411;DHT22;11878;51.774;7.220;2022-10-16T06:09:35;12.40;99.90
23411;DHT22;11878;51.774;7.220;2022-10-16T06:12:36;12.40;99.90
23411;DHT22;11878;51.774;7.220;2022-10-16T06:15:39;12.50;99.90
23411;DHT22;11878;51.774;7.220;2022-10-16T06:18:43;12.50;99.90
23411;DHT22;11878;51.774;7.220;2022-10-16T06:21:44;12.60;99.90
23411;DHT22;11878;51.774;7.220;2022-10-16T06:24:46;12.50;99.90
23411;DHT22;11878;51.774;7.220;2022-10-16T06:27:49;12.60;99.90
23411;DHT22;11878;51.774;7.220;2022-10-16T06:30:59;12.70;99.90
23411;DHT22;11878;51.774;7.220;2022-10-16T06:34:09;12.60;99.90
23411;DHT22;11878;51.774;7.220;2022-10-16T06:37:12;12.80;99.90
23411;DHT22;11878;51.774;7.220;2022-10-16T06:40:13;12.80;99.90
23411;DHT22;11878;51.774;7.220;2022-10-16T06:43:16;12.80;99.90
23411;DHT22;11878;51.774;7.220;2022-10-16T06:46:20;12.80;99.90
23411;DHT22;11878;51.774;7.220;2022-10-16T06:49:21;12.80;99.90
23411;DHT22;11878;51.774;7.220;2022-10-16T06:52:24;12.90;99.90
23411;DHT22;11878;51.774;7.220;2022-10-16T06:55:26;13.00;99.90
23411;DHT22;11878;51.774;7.220;2022-10-16T06:58:28;13.00;99.90
23411;DHT22;11878;51.774;7.220;2022-10-16T07:01:30;13.00;99.90
23411;DHT22;11878;51.774;7.220;2022-10-16T07:04:32;13.10;99.90
23411;DHT22;11878;51.774;7.220;2022-10-16T07:07:33;13.10;99.90
23411;DHT22;11878;51.774;7.220;2022-10-16T07:10:35;13.10;99.90
23411;DHT22;11878;51.774;7.220;2022-10-16T07:13:38;13.20;99.90
23411;DHT22;11878;51.774;7.220;2022-10-16T07:16:40;13.20;99.90
23411;DHT22;11878;51.774;7.220;2022-10-16T07:19:42;13.20;99.90
23411;DHT22;11878;51.774;7.220;2022-10-16T07:22:43;13.20;99.90
23411;DHT22;11878;51.774;7.220;2022-10-16T07:25:45;13.20;99.90
23411;DHT22;11878;51.774;7.220;2022-10-16T07:28:47;13.10;99.90
23411;DHT22;11878;51.774;7.220;2022-10-16T07:31:49;13.10;99.90
23411;DHT22;11878;51.774;7.220;2022-10-16T07:34:51;13.20;99.90
23411;DHT22;11878;51.774;7.220;2022-10-16T07:37:53;13.40;99.90
23411;DHT22;11878;51.774;7.220;2022-10-16T07:41:03;13.50;99.90
23411;DHT22;11878;51.774;7.220;2022-10-16T07:44:05;13.60;99.90
23411;DHT22;11878;51.774;7.220;2022-10-16T07:47:08;13.60;99.90
23411;DHT22;11878;51.774;7.220;2022-10-16T07:50:09;13.70;99.90
23411;DHT22;11878;51.774;7.220;2022-10-16T07:53:12;13.90;99.90
23411;DHT22;11878;51.774;7.220;2022-10-16T07:56:14;14.00;99.90
23411;DHT22;11878;51.774;7.220;2022-10-16T07:59:16;14.00;99.90
23411;DHT22;11878;51.774;7.220;2022-10-16T08:02:18;14.00;99.90
23411;DHT22;11878;51.774;7.220;2022-10-16T08:05:20;14.10;99.90
23411;DHT22;11878;51.774;7.220;2022-10-16T08:08:21;14.20;99.90
23411;DHT22;11878;51.774;7.220;2022-10-16T08:11:23;14.30;99.90
23411;DHT22;11878;51.774;7.220;2022-10-16T08:14:25;14.30;99.90
23411;DHT22;11878;51.774;7.220;2022-10-16T08:17:26;14.40;99.90
23411;DHT22;11878;51.774;7.220;2022-10-16T08:20:30;14.50;99.90
23411;DHT22;11878;51.774;7.220;2022-10-16T08:23:32;14.60;99.90
23411;DHT22;11878;51.774;7.220;2022-10-16T08:26:34;14.70;99.90
23411;DHT22;11878;51.774;7.220;2022-10-16T08:29:36;14.80;99.90
23411;DHT22;11878;51.774;7.220;2022-10-16T08:32:38;14.90;99.90
23411;DHT22;11878;51.774;7.220;2022-10-16T08:35:39;15.00;99.90
23411;DHT22;11878;51.774;7.220;2022-10-16T08:38:41;15.10;99.90
23411;DHT22;11878;51.774;7.220;2022-10-16T08:45:21;15.30;99.90
23411;DHT22;11878;51.774;7.220;2022-10-16T08:48:43;15.20;99.90
23411;DHT22;11878;51.774;7.220;2022-10-16T08:51:46;15.40;99.90
23411;DHT22;11878;51.774;7.220;2022-10-16T08:54:52;15.60;99.90
23411;DHT22;11878;51.774;7.220;2022-10-16T08:57:55;15.80;99.90
23411;DHT22;11878;51.774;7.220;2022-10-16T09:00:59;15.90;99.90
23411;DHT22;11878;51.774;7.220;2022-10-16T09:04:23;16.20;99.90
23411;DHT22;11878;51.774;7.220;2022-10-16T09:08:03;16.50;99.90
23411;DHT22;11878;51.774;7.220;2022-10-16T09:11:26;16.50;99.90
23411;DHT22;11878;51.774;7.220;2022-10-16T09:18:38;16.90;99.90
23411;DHT22;11878;51.774;7.220;2022-10-16T09:21:44;17.20;99.90
23411;DHT22;11878;51.774;7.220;2022-10-16T09:24:46;17.20;99.90
23411;DHT22;11878;51.774;7.220;2022-10-16T09:27:52;17.40;99.90
23411;DHT22;11878;51.774;7.220;2022-10-16T09:30:54;17.50;99.90
23411;DHT22;11878;51.774;7.220;2022-10-16T09:34:00;17.60;99.90
23411;DHT22;11878;51.774;7.220;2022-10-16T09:37:10;17.80;99.90
23411;DHT22;11878;51.774;7.220;2022-10-16T09:40:31;18.20;99.90
23411;DHT22;11878;51.774;7.220;2022-10-16T09:43:42;18.70;99.90
23411;DHT22;11878;51.774;7.220;2022-10-16T09:46:47;18.70;99.90
23411;DHT22;11878;51.774;7.220;2022-10-16T09:49:53;18.70;99.90
23411;DHT22;11878;51.774;7.220;2022-10-16T09:53:14;18.90;99.90
23411;DHT22;11878;51.774;7.220;2022-10-16T09:56:25;18.80;99.90
23411;DHT22;11878;51.774;7.220;2022-10-16T09:59:27;18.60;99.90
23411;DHT22;11878;51.774;7.220;2022-10-16T10:02:36;18.50;99.90
23411;DHT22;11878;51.774;7.220;2022-10-16T10:05:48;19.20;99.90
23411;DHT22;11878;51.774;7.220;2022-10-16T10:08:58;19.40;99.90
23411;DHT22;11878;51.774;7.220;2022-10-16T10:12:02;19.10;99.90
23411;DHT22;11878;51.774;7.220;2022-10-16T10:15:12;18.60;99.90
23411;DHT22;11878;51.774;7.220;2022-10-16T10:18:18;18.90;99.90
23411;DHT22;11878;51.774;7.220;2022-10-16T10:21:21;18.70;99.90
23411;DHT22;11878;51.774;7.220;2022-10-16T10:24:23;18.10;99.90
23411;DHT22;11878;51.774;7.220;2022-10-16T10:34:32;18.30;99.90
23411;DHT22;11878;51.774;7.220;2022-10-16T10:37:50;18.20;99.90
23411;DHT22;11878;51.774;7.220;2022-10-16T10:41:03;18.10;99.90
23411;DHT22;11878;51.774;7.220;2022-10-16T10:44:43;18.00;99.90
23411;DHT22;11878;51.774;7.220;2022-10-16T10:52:26;18.20;99.90
23411;DHT22;11878;51.774;7.220;2022-10-16T10:55:17;17.90;99.90
23411;DHT22;11878;51.774;7.220;2022-10-16T11:02:12;17.90;99.90
23411;DHT22;11878;51.774;7.220;2022-10-16T11:05:40;17.90;99.90
23411;DHT22;11878;51.774;7.220;2022-10-16T11:08:49;17.90;99.90
23411;DHT22;11878;51.774;7.220;2022-10-16T11:15:21;18.10;99.90
23411;DHT22;11878;51.774;7.220;2022-10-16T11:18:39;18.40;99.90
23411;DHT22;11878;51.774;7.220;2022-10-16T11:21:54;18.20;99.90
23411;DHT22;11878;51.774;7.220;2022-10-16T11:25:06;18.30;99.90
23411;DHT22;11878;51.774;7.220;2022-10-16T11:28:20;18.50;99.90
23411;DHT22;11878;51.774;7.220;2022-10-16T11:31:38;18.40;99.90
23411;DHT22;11878;51.774;7.220;2022-10-16T11:35:05;18.40;99.90
23411;DHT22;11878;51.774;7.220;2022-10-16T11:38:20;18.60;99.90
23411;DHT22;11878;51.774;7.220;2022-10-16T11:41:35;18.80;99.90
23411;DHT22;11878;51.774;7.220;2022-10-16T11:45:00;19.00;99.90
23411;DHT22;11878;51.774;7.220;2022-10-16T11:48:27;19.30;99.90
23411;DHT22;11878;51.774;7.220;2022-10-16T11:51:43;19.50;99.90
23411;DHT22;11878;51.774;7.220;2022-10-16T11:54:54;19.30;99.90
23411;DHT22;11878;51.774;7.220;2022-10-16T11:58:02;19.10;99.90
23411;DHT22;11878;51.774;7.220;2022-10-16T12:04:39;19.10;99.90
23411;DHT22;11878;51.774;7.220;2022-10-16T12:08:06;19.10;99.90
23411;DHT22;11878;51.774;7.220;2022-10-16T12:17:38;19.20;99.90
23411;DHT22;11878;51.774;7.220;2022-10-16T12:20:40;19.20;99.90
23411;DHT22;11878;51.774;7.220;2022-10-16T12:23:55;19.30;99.90
23411;DHT22;11878;51.774;7.220;2022-10-16T12:26:58;19.00;99.90
23411;DHT22;11878;51.774;7.220;2022-10-16T12:30:01;18.90;99.90
23411;DHT22;11878;51.774;7.220;2022-10-16T12:33:06;18.90;99.90
23411;DHT22;11878;51.774;7.220;2022-10-16T12:36:30;18.80;99.90
23411;DHT22;11878;51.774;7.220;2022-10-16T12:39:32;18.70;99.90
23411;DHT22;11878;51.774;7.220;2022-10-16T12:42:34;18.70;99.90
23411;DHT22;11878;51.774;7.220;2022-10-16T12:45:36;18.70;99.90
23411;DHT22;11878;51.774;7.220;2022-10-16T12:48:40;18.50;99.90
23411;DHT22;11878;51.774;7.220;2022-10-16T12:51:50;18.40;99.90
23411;DHT22;11878;51.774;7.220;2022-10-16T12:54:51;18.40;99.90
23411;DHT22;11878;51.774;7.220;2022-10-16T13:05:00;18.60;99.90
23411;DHT22;11878;51.774;7.220;2022-10-16T13:08:24;18.70;99.90
23411;DHT22;11878;51.774;7.220;2022-10-16T13:21:39;18.70;99.90
23411;DHT22;11878;51.774;7.220;2022-10-16T13:28:40;18.60;99.90
23411;DHT22;11878;51.774;7.220;2022-10-16T13:31:43;18.90;99.90
23411;DHT22;11878;51.774;7.220;2022-10-16T13:34:47;19.30;99.90
23411;DHT22;11878;51.774;7.220;2022-10-16T13:37:50;19.60;99.90
23411;DHT22;11878;51.774;7.220;2022-10-16T13:40:55;19.70;99.90
23411;DHT22;11878;51.774;7.220;2022-10-16T13:43:57;20.40;99.90
23411;DHT22;11878;51.774;7.220;2022-10-16T13:47:02;22.00;99.90
23411;DHT22;11878;51.774;7.220;2022-10-16T13:50:13;22.10;96.40
23411;DHT22;11878;51.774;7.220;2022-10-16T13:53:15;22.00;97.80
23411;DHT22;11878;51.774;7.220;2022-10-16T13:56:19;24.80;92.40
23411;DHT22;11878;51.774;7.220;2022-10-16T13:59:36;26.40;80.30
23411;DHT22;11878;51.774;7.220;2022-10-16T14:02:40;26.40;74.20
23411;DHT22;11878;51.774;7.220;2022-10-16T14:05:49;24.00;80.60
23411;DHT22;11878;51.774;7.220;2022-10-16T14:12:13;23.00;91.90
23411;DHT22;11878;51.774;7.220;2022-10-16T14:15:18;22.00;92.30
23411;DHT22;11878;51.774;7.220;2022-10-16T14:18:23;21.80;92.70
23411;DHT22;11878;51.774;7.220;2022-10-16T14:21:26;21.50;96.80
23411;DHT22;11878;51.774;7.220;2022-10-16T14:24:35;21.40;99.20
23411;DHT22;11878;51.774;7.220;2022-10-16T14:27:37;24.30;88.80
23411;DHT22;11878;51.774;7.220;2022-10-16T14:30:58;26.00;77.00
23411;DHT22;11878;51.774;7.220;2022-10-16T14:34:00;24.90;79.00
23411;DHT22;11878;51.774;7.220;2022-10-16T14:37:26;23.00;87.10
23411;DHT22;11878;51.774;7.220;2022-10-16T14:40:31;21.40;94.30
23411;DHT22;11878;51.774;7.220;2022-10-16T14:43:38;20.80;96.30
23411;DHT22;11878;51.774;7.220;2022-10-16T14:46:42;20.20;99.90
23411;DHT22;11878;51.774;7.220;2022-10-16T14:49:45;19.60;99.90
23411;DHT22;11878;51.774;7.220;2022-10-16T14:52:46;19.50;99.90
23411;DHT22;11878;51.774;7.220;2022-10-16T14:55:48;19.60;99.90
23411;DHT22;11878;51.774;7.220;2022-10-16T14:58:51;23.00;99.90
23411;DHT22;11878;51.774;7.220;2022-10-16T15:01:53;24.40;91.30
23411;DHT22;11878;51.774;7.220;2022-10-16T15:04:55;21.80;94.80
23411;DHT22;11878;51.774;7.220;2022-10-16T15:07:57;20.80;97.70
23411;DHT22;11878;51.774;7.220;2022-10-16T15:10:59;20.30;99.80
23411;DHT22;11878;51.774;7.220;2022-10-16T15:14:01;19.80;99.90
23411;DHT22;11878;51.774;7.220;2022-10-16T15:17:03;19.50;99.90
23411;DHT22;11878;51.774;7.220;2022-10-16T15:20:05;19.30;99.90
23411;DHT22;11878;51.774;7.220;2022-10-16T15:23:16;19.10;99.90
23411;DHT22;11878;51.774;7.220;2022-10-16T15:26:18;18.90;99.90
23411;DHT22;11878;51.774;7.220;2022-10-16T15:29:20;18.70;99.90
23411;DHT22;11878;51.774;7.220;2022-10-16T15:32:21;18.50;99.90
23411;DHT22;11878;51.774;7.220;2022-10-16T15:35:23;18.50;99.90
23411;DHT22;11878;51.774;7.220;2022-10-16T15:38:26;18.50;99.90
23411;DHT22;11878;51.774;7.220;2022-10-16T15:41:28;18.30;99.90
23411;DHT22;11878;51.774;7.220;2022-10-16T15:44:30;18.20;99.90
23411;DHT22;11878;51.774;7.220;2022-10-16T15:47:32;18.10;99.90
23411;DHT22;11878;51.774;7.220;2022-10-16T15:50:34;18.10;99.90
23411;DHT22;11878;51.774;7.220;2022-10-16T15:53:38;18.10;99.90
23411;DHT22;11878;51.774;7.220;2022-10-16T15:56:40;17.90;99.90
23411;DHT22;11878;51.774;7.220;2022-10-16T15:59:41;17.80;99.90
23411;DHT22;11878;51.774;7.220;2022-10-16T16:02:44;17.70;99.90
23411;DHT22;11878;51.774;7.220;2022-10-16T16:05:50;17.70;99.90
23411;DHT22;11878;51.774;7.220;2022-10-16T16:08:52;17.40;99.90
23411;DHT22;11878;51.774;7.220;2022-10-16T16:11:54;17.40;99.90
23411;DHT22;11878;51.774;7.220;2022-10-16T16:14:56;17.40;99.90
23411;DHT22;11878;51.774;7.220;2022-10-16T16:18:01;17.30;99.90
23411;DHT22;11878;51.774;7.220;2022-10-16T16:21:11;17.20;99.90
23411;DHT22;11878;51.774;7.220;2022-10-16T16:24:13;17.00;99.90
23411;DHT22;11878;51.774;7.220;2022-10-16T16:27:15;16.90;99.90
23411;DHT22;11878;51.774;7.220;2022-10-16T16:30:16;16.80;99.90
23411;DHT22;11878;51.774;7.220;2022-10-16T16:33:23;16.80;99.90
23411;DHT22;11878;51.774;7.220;2022-10-16T16:36:25;16.70;99.90
23411;DHT22;11878;51.774;7.220;2022-10-16T16:39:27;16.70;99.90
23411;DHT22;11878;51.774;7.220;2022-10-16T16:42:29;16.70;99.90
23411;DHT22;11878;51.774;7.220;2022-10-16T16:45:35;16.50;99.90
23411;DHT22;11878;51.774;7.220;2022-10-16T16:48:37;16.40;99.90
23411;DHT22;11878;51.774;7.220;2022-10-16T16:51:39;16.30;99.90
23411;DHT22;11878;51.774;7.220;2022-10-16T16:54:41;16.20;99.90
23411;DHT22;11878;51.774;7.220;2022-10-16T16:57:43;16.30;99.90
23411;DHT22;11878;51.774;7.220;2022-10-16T17:00:45;16.20;99.90
23411;DHT22;11878;51.774;7.220;2022-10-16T17:03:58;16.10;99.90
23411;DHT22;11878;51.774;7.220;2022-10-16T17:07:01;16.00;99.90
23411;DHT22;11878;51.774;7.220;2022-10-16T17:10:02;15.90;99.90
23411;DHT22;11878;51.774;7.220;2022-10-16T17:13:04;16.00;99.90
23411;DHT22;11878;51.774;7.220;2022-10-16T17:16:06;16.10;99.90
23411;DHT22;11878;51.774;7.220;2022-10-16T17:19:11;16.10;99.90
23411;DHT22;11878;51.774;7.220;2022-10-16T17:22:13;15.90;99.90
23411;DHT22;11878;51.774;7.220;2022-10-16T17:25:15;16.00;99.90
23411;DHT22;11878;51.774;7.220;2022-10-16T17:28:18;15.90;99.90
23411;DHT22;11878;51.774;7.220;2022-10-16T17:31:22;15.80;99.90
23411;DHT22;11878;51.774;7.220;2022-10-16T17:34:24;15.80;99.90
23411;DHT22;11878;51.774;7.220;2022-10-16T17:37:26;15.70;99.90
23411;DHT22;11878;51.774;7.220;2022-10-16T17:40:27;15.70;99.90
23411;DHT22;11878;51.774;7.220;2022-10-16T17:43:29;15.60;99.90
23411;DHT22;11878;51.774;7.220;2022-10-16T17:46:31;15.60;99.90
23411;DHT22;11878;51.774;7.220;2022-10-16T17:49:40;15.50;99.90
23411;DHT22;11878;51.774;7.220;2022-10-16T17:52:42;15.60;99.90
23411;DHT22;11878;51.774;7.220;2022-10-16T17:55:44;15.60;99.90
23411;DHT22;11878;51.774;7.220;2022-10-16T17:58:49;15.60;99.90
23411;DHT22;11878;51.774;7.220;2022-10-16T18:01:52;15.50;99.90
23411;DHT22;11878;51.774;7.220;2022-10-16T18:04:54;15.50;99.90
23411;DHT22;11878;51.774;7.220;2022-10-16T18:07:56;15.50;99.90
23411;DHT22;11878;51.774;7.220;2022-10-16T18:10:58;15.40;99.90
23411;DHT22;11878;51.774;7.220;2022-10-16T18:14:00;15.30;99.90
23411;DHT22;11878;51.774;7.220;2022-10-16T18:17:02;15.40;99.90
23411;DHT22;11878;51.774;7.220;2022-10-16T18:20:06;15.20;99.90
23411;DHT22;11878;51.774;7.220;2022-10-16T18:23:08;15.30;99.90
23411;DHT22;11878;51.774;7.220;2022-10-16T18:26:11;15.20;99.90
23411;DHT22;11878;51.774;7.220;2022-10-16T18:29:13;15.20;99.90
23411;DHT22;11878;51.774;7.220;2022-10-16T18:32:14;15.20;99.90
23411;DHT22;11878;51.774;7.220;2022-10-16T18:35:17;15.20;99.90
23411;DHT22;11878;51.774;7.220;2022-10-16T18:38:19;15.30;99.90
23411;DHT22;11878;51.774;7.220;2022-10-16T18:41:21;15.20;99.90
23411;DHT22;11878;51.774;7.220;2022-10-16T18:44:23;15.10;99.90
23411;DHT22;11878;51.774;7.220;2022-10-16T18:47:25;15.10;99.90
23411;DHT22;11878;51.774;7.220;2022-10-16T18:50:27;15.20;99.90
23411;DHT22;11878;51.774;7.220;2022-10-16T18:53:28;15.30;99.90
23411;DHT22;11878;51.774;7.220;2022-10-16T18:56:30;15.20;99.90
23411;DHT22;11878;51.774;7.220;2022-10-16T18:59:32;15.20;99.90
23411;DHT22;11878;51.774;7.220;2022-10-16T19:02:34;15.20;99.90
23411;DHT22;11878;51.774;7.220;2022-10-16T19:05:41;15.30;99.90
23411;DHT22;11878;51.774;7.220;2022-10-16T19:08:43;15.30;99.90
23411;DHT22;11878;51.774;7.220;2022-10-16T19:11:44;15.20;99.90
23411;DHT22;11878;51.774;7.220;2022-10-16T19:14:47;15.20;99.90
23411;DHT22;11878;51.774;7.220;2022-10-16T19:17:49;15.20;99.90
23411;DHT22;11878;51.774;7.220;2022-10-16T19:20:51;15.20;99.90
23411;DHT22;11878;51.774;7.220;2022-10-16T19:23:58;15.10;99.90
23411;DHT22;11878;51.774;7.220;2022-10-16T19:27:00;15.20;99.90
23411;DHT22;11878;51.774;7.220;2022-10-16T19:30:02;15.10;99.90
23411;DHT22;11878;51.774;7.220;2022-10-16T19:33:04;15.10;99.90
23411;DHT22;11878;51.774;7.220;2022-10-16T19:36:17;15.00;99.90
23411;DHT22;11878;51.774;7.220;2022-10-16T19:39:19;15.00;99.90
23411;DHT22;11878;51.774;7.220;2022-10-16T19:42:26;14.80;99.90
23411;DHT22;11878;51.774;7.220;2022-10-16T19:45:28;14.90;99.90
23411;DHT22;11878;51.774;7.220;2022-10-16T19:48:29;15.00;99.90
23411;DHT22;11878;51.774;7.220;2022-10-16T19:51:32;14.90;99.90
23411;DHT22;11878;51.774;7.220;2022-10-16T19:54:34;14.80;99.90
23411;DHT22;11878;51.774;7.220;2022-10-16T19:57:37;14.70;99.90
23411;DHT22;11878;51.774;7.220;2022-10-16T20:00:41;14.70;99.90
23411;DHT22;11878;51.774;7.220;2022-10-16T20:03:44;14.70;99.90
23411;DHT22;11878;51.774;7.220;2022-10-16T20:06:46;14.60;99.90
23411;DHT22;11878;51.774;7.220;2022-10-16T20:09:48;14.70;99.90
23411;DHT22;11878;51.774;7.220;2022-10-16T20:12:50;14.60;99.90
23411;DHT22;11878;51.774;7.220;2022-10-16T20:15:52;14.60;99.90
23411;DHT22;11878;51.774;7.220;2022-10-16T20:18:55;14.50;99.90
23411;DHT22;11878;51.774;7.220;2022-10-16T20:21:57;14.50;99.90
23411;DHT22;11878;51.774;7.220;2022-10-16T20:24:59;14.50;99.90
23411;DHT22;11878;51.774;7.220;2022-10-16T20:28:00;14.50;99.90
23411;DHT22;11878;51.774;7.220;2022-10-16T20:31:10;14.40;99.90
23411;DHT22;11878;51.774;7.220;2022-10-16T20:34:12;14.40;99.90